createdAt,value
2018-12-17T00:01:39.231Z,0.77
2018-12-17T00:04:07.452Z,0.81
2018-12-17T00:06:35.636Z,0.80
2018-12-17T00:09:05.556Z,0.86
2018-12-17T00:11:34.102Z,0.82
2018-12-17T00:14:02.280Z,0.88
2018-12-17T00:16:30.496Z,0.92
2018-12-17T00:18:58.676Z,0.94
2018-12-17T00:21:26.857Z,0.95
2018-12-17T00:23:55.093Z,0.96
2018-12-17T00:26:23.272Z,0.94
2018-12-17T00:28:51.444Z,0.89
2018-12-17T00:31:19.667Z,0.94
2018-12-17T00:33:47.856Z,0.87
2018-12-17T00:36:16.032Z,0.91
2018-12-17T00:38:44.255Z,0.93
2018-12-17T00:41:12.481Z,0.98
2018-12-17T00:43:40.747Z,1.00
2018-12-17T00:46:09.042Z,1.03
2018-12-17T00:48:37.333Z,0.99
2018-12-17T00:51:05.520Z,1.01
2018-12-17T00:53:33.733Z,1.01
2018-12-17T00:56:02.012Z,1.06
2018-12-17T00:58:30.244Z,1.07
2018-12-17T01:00:58.428Z,1.07
2018-12-17T01:03:26.704Z,1.03
2018-12-17T01:05:54.928Z,1.06
2018-12-17T01:08:23.111Z,1.03
2018-12-17T01:10:51.304Z,1.04
2018-12-17T01:13:19.496Z,1.05
2018-12-17T01:15:47.720Z,1.06
2018-12-17T01:18:15.908Z,1.08
2018-12-17T01:20:44.083Z,1.13
2018-12-17T01:23:12.312Z,1.15
2018-12-17T01:25:40.484Z,1.16
2018-12-17T01:28:08.657Z,1.15
2018-12-17T01:30:36.881Z,1.16
2018-12-17T01:33:05.213Z,1.17
2018-12-17T01:35:33.528Z,1.19
2018-12-17T01:38:01.709Z,1.19
2018-12-17T01:40:29.909Z,1.18
2018-12-17T01:42:58.124Z,1.19
2018-12-17T01:45:26.288Z,1.17
2018-12-17T01:47:54.504Z,1.18
2018-12-17T01:50:22.668Z,1.20
2018-12-17T01:52:50.888Z,1.20
2018-12-17T01:55:19.073Z,1.22
2018-12-17T01:57:47.360Z,1.23
2018-12-17T02:00:15.680Z,1.20
2018-12-17T02:02:43.937Z,1.22
2018-12-17T02:05:12.312Z,1.22
2018-12-17T02:07:40.549Z,1.24
2018-12-17T02:10:08.844Z,1.24
2018-12-17T02:12:37.151Z,1.21
2018-12-17T02:15:05.602Z,1.17
2018-12-17T02:17:33.827Z,1.17
2018-12-17T02:20:02.151Z,1.18
2018-12-17T02:22:30.424Z,1.16
2018-12-17T02:24:58.653Z,1.16
2018-12-17T02:27:26.836Z,1.13
2018-12-17T02:29:55.056Z,1.10
2018-12-17T02:32:23.245Z,1.10
2018-12-17T02:34:51.460Z,1.08
2018-12-17T02:37:19.648Z,1.12
2018-12-17T02:39:47.860Z,1.10
2018-12-17T02:42:16.052Z,1.05
2018-12-17T02:44:44.273Z,1.01
2018-12-17T02:47:12.495Z,0.93
2018-12-17T02:49:40.688Z,0.99
2018-12-17T02:52:08.908Z,1.04
2018-12-17T02:54:37.210Z,1.07
2018-12-17T02:57:05.480Z,1.12
2018-12-17T02:59:33.832Z,1.13
2018-12-17T03:02:02.223Z,1.19
2018-12-17T03:04:30.497Z,1.19
2018-12-17T03:06:58.725Z,1.20
2018-12-17T03:09:26.909Z,1.24
2018-12-17T03:11:55.124Z,1.23
2018-12-17T03:14:23.334Z,1.26
2018-12-17T03:16:51.561Z,1.25
2018-12-17T03:19:19.741Z,1.25
2018-12-17T03:21:47.933Z,1.23
2018-12-17T03:24:16.159Z,1.24
2018-12-17T03:26:44.414Z,1.25
2018-12-17T03:29:12.587Z,1.24
2018-12-17T03:31:41.110Z,1.26
2018-12-17T03:34:09.365Z,1.28
2018-12-17T03:36:37.596Z,1.29
2018-12-17T03:39:07.099Z,1.32
2018-12-17T03:41:35.520Z,1.30
2018-12-17T03:44:03.874Z,1.31
2018-12-17T03:46:32.083Z,1.32
2018-12-17T03:49:00.271Z,1.30
2018-12-17T03:51:28.484Z,1.33
2018-12-17T03:53:56.754Z,1.32
2018-12-17T03:56:24.968Z,1.30
2018-12-17T03:58:59.266Z,1.32
2018-12-17T04:01:23.360Z,1.30
2018-12-17T04:03:51.637Z,1.32
2018-12-17T04:06:19.825Z,1.34
2018-12-17T04:08:48.022Z,1.35
2018-12-17T04:11:16.252Z,1.35
2018-12-17T04:13:44.439Z,1.30
2018-12-17T04:16:12.709Z,1.25
2018-12-17T04:18:40.932Z,1.21
2018-12-17T04:21:09.279Z,1.20
2018-12-17T04:23:37.465Z,1.21
2018-12-17T04:26:05.709Z,1.20
2018-12-17T04:28:33.934Z,1.16
2018-12-17T04:31:02.123Z,1.21
2018-12-17T04:33:30.510Z,1.23
2018-12-17T04:35:58.780Z,1.26
2018-12-17T04:38:26.982Z,1.23
2018-12-17T04:40:55.252Z,1.24
2018-12-17T04:43:23.476Z,1.27
2018-12-17T04:45:51.703Z,1.30
2018-12-17T04:48:19.994Z,1.32
2018-12-17T04:50:48.295Z,1.31
2018-12-17T04:53:16.516Z,1.32
2018-12-17T04:55:44.693Z,1.27
2018-12-17T04:58:12.932Z,1.29
2018-12-17T05:00:41.116Z,1.31
2018-12-17T05:03:09.313Z,1.29
2018-12-17T05:05:37.568Z,1.30
2018-12-17T05:08:05.863Z,1.30
2018-12-17T05:10:34.252Z,1.32
2018-12-17T05:13:02.448Z,1.35
2018-12-17T05:15:30.996Z,1.34
2018-12-17T05:17:59.215Z,1.34
2018-12-17T05:20:27.405Z,1.33
2018-12-17T05:22:55.656Z,1.35
2018-12-17T05:25:23.876Z,1.36
2018-12-17T05:27:52.112Z,1.38
2018-12-17T05:30:20.395Z,1.37
2018-12-17T05:32:48.638Z,1.39
2018-12-17T05:35:16.860Z,1.39
2018-12-17T05:37:45.041Z,1.43
2018-12-17T05:40:13.308Z,1.42
2018-12-17T05:42:41.532Z,1.38
2018-12-17T05:45:09.857Z,1.33
2018-12-17T05:47:38.032Z,1.31
2018-12-17T05:50:06.493Z,1.30
2018-12-17T05:52:34.726Z,1.30
2018-12-17T05:55:02.954Z,1.33
2018-12-17T05:57:31.144Z,1.36
2018-12-17T05:59:59.341Z,1.38
2018-12-17T06:02:27.575Z,1.39
2018-12-17T06:04:55.781Z,1.39
2018-12-17T06:07:23.962Z,1.40
2018-12-17T06:09:52.184Z,1.40
2018-12-17T06:12:20.361Z,1.34
2018-12-17T06:14:48.621Z,1.38
2018-12-17T06:17:16.852Z,1.43
2018-12-17T06:19:45.084Z,1.46
2018-12-17T06:22:13.300Z,1.48
2018-12-17T06:24:41.479Z,1.51
2018-12-17T06:27:09.696Z,1.53
2018-12-17T06:29:37.933Z,1.54
2018-12-17T06:32:06.207Z,1.56
2018-12-17T06:34:34.493Z,1.54
2018-12-17T06:37:02.662Z,1.49
2018-12-17T06:39:30.841Z,1.51
2018-12-17T06:41:59.064Z,1.51
2018-12-17T06:44:27.269Z,1.53
2018-12-17T06:46:55.529Z,1.51
2018-12-17T06:49:23.759Z,1.53
2018-12-17T06:51:52.613Z,1.57
2018-12-17T06:54:21.592Z,1.57
2018-12-17T06:56:49.809Z,1.56
2018-12-17T06:59:18.105Z,1.58
2018-12-17T07:01:46.876Z,1.59
2018-12-17T07:04:15.129Z,1.59
2018-12-17T07:06:43.304Z,1.57
2018-12-17T07:09:11.544Z,1.57
2018-12-17T07:11:39.756Z,1.56
2018-12-17T07:14:08.029Z,1.56
2018-12-17T07:16:36.263Z,1.57
2018-12-17T07:19:04.585Z,1.51
2018-12-17T07:21:32.779Z,1.40
2018-12-17T07:24:01.161Z,1.34
2018-12-17T07:26:29.382Z,1.30
2018-12-17T07:28:57.560Z,1.34
2018-12-17T07:31:25.768Z,1.34
2018-12-17T07:33:53.959Z,1.36
2018-12-17T07:36:22.164Z,1.42
2018-12-17T07:38:50.509Z,1.42
2018-12-17T07:41:18.685Z,1.44
2018-12-17T07:43:46.896Z,1.45
2018-12-17T07:46:15.109Z,1.50
2018-12-17T07:48:43.289Z,1.51
2018-12-17T07:51:11.514Z,1.56
2018-12-17T07:53:39.736Z,1.56
2018-12-17T07:56:08.028Z,1.58
2018-12-17T07:58:36.261Z,1.59
2018-12-17T08:01:04.436Z,1.58
2018-12-17T08:03:32.658Z,1.62
2018-12-17T08:06:00.851Z,1.64
2018-12-17T08:08:35.196Z,1.66
2018-12-17T08:10:59.224Z,1.69
2018-12-17T08:13:27.529Z,1.63
2018-12-17T08:15:55.747Z,1.68
2018-12-17T08:18:24.733Z,1.68
2018-12-17T08:20:53.177Z,1.68
2018-12-17T08:23:21.364Z,1.72
2018-12-17T08:25:49.621Z,1.69
2018-12-17T08:28:17.900Z,1.73
2018-12-17T08:30:46.625Z,1.72
2018-12-17T08:33:14.806Z,1.73
2018-12-17T08:35:43.052Z,1.63
2018-12-17T08:38:11.246Z,1.58
2018-12-17T08:40:39.469Z,1.62
2018-12-17T08:43:14.408Z,1.67
2018-12-17T08:45:42.655Z,1.72
2018-12-17T08:48:10.859Z,1.79
2018-12-17T08:50:39.076Z,1.84
2018-12-17T08:53:07.413Z,1.85
2018-12-17T08:55:35.616Z,1.91
2018-12-17T08:58:03.948Z,1.87
2018-12-17T09:00:32.300Z,1.88
2018-12-17T09:03:00.473Z,1.92
2018-12-17T09:05:28.712Z,1.95
2018-12-17T09:07:56.913Z,1.96
2018-12-17T09:10:25.128Z,1.97
2018-12-17T09:12:53.321Z,2.04
2018-12-17T09:15:21.669Z,1.99
2018-12-17T09:17:49.864Z,2.04
2018-12-17T09:20:18.304Z,2.07
2018-12-17T09:22:46.497Z,2.01
2018-12-17T09:25:14.668Z,2.11
2018-12-17T09:27:42.884Z,2.16
2018-12-17T09:30:18.053Z,2.21
2018-12-17T09:32:41.484Z,2.26
2018-12-17T09:35:09.965Z,2.26
2018-12-17T09:37:38.192Z,2.26
2018-12-17T09:40:07.056Z,2.28
2018-12-17T09:42:35.232Z,2.27
2018-12-17T09:45:04.396Z,2.29
2018-12-17T09:47:32.584Z,2.35
2018-12-17T09:50:00.812Z,2.32
2018-12-17T09:52:29.005Z,2.22
2018-12-17T09:54:57.223Z,2.27
2018-12-17T09:57:25.426Z,2.26
2018-12-17T09:59:53.653Z,2.29
2018-12-17T10:02:21.872Z,2.22
2018-12-17T10:04:50.060Z,2.29
2018-12-17T10:07:18.456Z,2.32
2018-12-17T10:09:46.689Z,2.19
2018-12-17T10:12:14.900Z,2.22
2018-12-17T10:14:43.136Z,2.21
2018-12-17T10:17:11.348Z,2.30
2018-12-17T10:19:39.576Z,2.37
2018-12-17T10:22:08.222Z,2.21
2018-12-17T10:24:36.506Z,2.29
2018-12-17T10:27:04.821Z,2.40
2018-12-17T10:29:33.000Z,2.40
2018-12-17T10:32:01.677Z,2.39
2018-12-17T10:34:29.908Z,2.48
2018-12-17T10:36:58.089Z,2.64
2018-12-17T10:39:26.312Z,2.72
2018-12-17T10:41:54.484Z,2.80
2018-12-17T10:44:22.712Z,2.88
2018-12-17T10:46:50.928Z,2.85
2018-12-17T10:49:19.124Z,2.87
2018-12-17T10:51:47.332Z,2.90
2018-12-17T10:54:15.512Z,2.88
2018-12-17T10:56:43.814Z,2.95
2018-12-17T10:59:12.041Z,2.88
2018-12-17T11:01:45.577Z,2.92
2018-12-17T11:04:19.713Z,3.09
2018-12-17T11:06:47.945Z,3.07
2018-12-17T11:09:16.265Z,3.17
2018-12-17T11:11:44.463Z,3.23
2018-12-17T11:14:12.682Z,3.24
2018-12-17T11:16:40.904Z,3.23
2018-12-17T11:19:09.087Z,3.16
2018-12-17T11:21:37.260Z,3.11
2018-12-17T11:24:05.484Z,3.03
2018-12-17T11:26:36.633Z,3.08
2018-12-17T11:29:05.051Z,3.23
2018-12-17T11:31:33.264Z,3.25
2018-12-17T11:34:01.489Z,3.24
2018-12-17T11:36:29.710Z,3.27
2018-12-17T11:38:57.914Z,3.29
2018-12-17T11:41:26.098Z,3.31
2018-12-17T11:43:54.309Z,3.17
2018-12-17T11:46:22.561Z,3.10
2018-12-17T11:48:50.740Z,3.05
2018-12-17T11:51:19.001Z,3.08
2018-12-17T11:53:47.177Z,3.03
2018-12-17T11:56:15.385Z,2.94
2018-12-17T11:58:43.592Z,2.96
2018-12-17T12:01:12.428Z,3.03
2018-12-17T12:03:42.437Z,3.05
2018-12-17T12:06:14.233Z,3.05
2018-12-17T12:08:40.856Z,3.04
2018-12-17T12:11:09.098Z,3.11
2018-12-17T12:13:37.264Z,3.16
2018-12-17T12:16:05.534Z,3.18
2018-12-17T12:18:33.709Z,3.15
2018-12-17T12:21:01.980Z,3.08
2018-12-17T12:23:30.221Z,3.11
2018-12-17T12:25:58.410Z,3.10
2018-12-17T12:28:26.590Z,3.13
2018-12-17T12:31:00.480Z,3.18
2018-12-17T12:33:25.015Z,3.18
2018-12-17T12:35:53.260Z,3.10
2018-12-17T12:38:21.433Z,3.09
2018-12-17T12:40:49.680Z,3.07
2018-12-17T12:43:17.892Z,3.09
2018-12-17T12:45:46.153Z,3.07
2018-12-17T12:48:14.328Z,3.03
2018-12-17T12:50:42.507Z,3.01
2018-12-17T12:53:10.732Z,3.04
2018-12-17T12:55:38.959Z,3.04
2018-12-17T12:58:07.159Z,3.08
2018-12-17T13:00:35.352Z,3.09
2018-12-17T13:03:03.696Z,2.97
2018-12-17T13:05:31.896Z,2.98
2018-12-17T13:08:00.123Z,2.83
2018-12-17T13:10:28.308Z,2.88
2018-12-17T13:12:56.484Z,2.83
2018-12-17T13:15:24.705Z,2.85
2018-12-17T13:17:52.987Z,2.75
2018-12-17T13:20:21.215Z,2.84
2018-12-17T13:22:49.420Z,2.65
2018-12-17T13:25:39.641Z,2.72
2018-12-17T13:28:07.927Z,2.70
2018-12-17T13:30:36.452Z,2.73
2018-12-17T13:33:04.628Z,2.74
2018-12-17T13:35:32.807Z,2.61
2018-12-17T13:38:01.036Z,2.57
2018-12-17T13:40:29.217Z,2.55
2018-12-17T13:42:57.428Z,2.49
2018-12-17T13:45:25.621Z,2.50
2018-12-17T13:47:53.853Z,2.53
2018-12-17T13:50:30.174Z,2.51
2018-12-17T13:53:01.736Z,2.52
2018-12-17T13:55:29.958Z,2.50
2018-12-17T13:57:58.179Z,2.57
2018-12-17T14:00:26.388Z,2.58
2018-12-17T14:02:54.632Z,2.69
2018-12-17T14:05:22.936Z,2.76
2018-12-17T14:07:51.135Z,2.79
2018-12-17T14:10:24.524Z,2.83
2018-12-17T14:12:52.708Z,2.85
2018-12-17T14:15:20.933Z,2.81
2018-12-17T14:17:49.120Z,2.79
2018-12-17T14:20:22.572Z,2.80
2018-12-17T14:22:50.765Z,2.79
2018-12-17T14:25:19.000Z,2.87
2018-12-17T14:27:47.180Z,2.87
2018-12-17T14:30:15.360Z,2.93
2018-12-17T14:32:43.585Z,2.91
2018-12-17T14:35:11.839Z,2.88
2018-12-17T14:37:45.236Z,2.84
2018-12-17T14:40:13.544Z,2.82
2018-12-17T14:42:41.759Z,2.77
2018-12-17T14:45:09.865Z,2.67
2018-12-17T14:47:38.176Z,2.69
2018-12-17T14:50:06.517Z,2.69
2018-12-17T14:52:34.708Z,2.69
2018-12-17T14:55:02.892Z,2.73
2018-12-17T14:57:31.125Z,2.63
2018-12-17T14:59:59.374Z,2.61
2018-12-17T15:02:27.560Z,2.57
2018-12-17T15:04:55.743Z,2.65
2018-12-17T15:07:23.961Z,2.57
2018-12-17T15:09:52.181Z,2.61
2018-12-17T15:12:20.391Z,2.60
2018-12-17T15:14:48.576Z,2.53
2018-12-17T15:17:16.800Z,2.52
2018-12-17T15:19:45.129Z,2.52
2018-12-17T15:22:13.405Z,2.59
2018-12-17T15:24:41.661Z,2.53
2018-12-17T15:27:09.993Z,2.51
2018-12-17T15:29:38.244Z,2.47
2018-12-17T15:32:06.529Z,2.45
2018-12-17T15:34:34.735Z,2.43
2018-12-17T15:37:02.916Z,2.45
2018-12-17T15:39:31.129Z,2.43
2018-12-17T15:41:59.348Z,2.44
2018-12-17T15:44:28.918Z,2.40
2018-12-17T15:46:57.260Z,2.35
2018-12-17T15:49:25.504Z,2.41
2018-12-17T15:51:53.714Z,2.42
2018-12-17T15:54:22.176Z,2.41
2018-12-17T15:56:50.380Z,2.49
2018-12-17T15:59:18.697Z,2.52
2018-12-17T16:01:49.981Z,2.54
2018-12-17T16:04:17.137Z,2.55
2018-12-17T16:06:45.376Z,2.55
2018-12-17T16:09:13.579Z,2.61
2018-12-17T16:11:41.820Z,2.62
2018-12-17T16:14:10.057Z,2.63
2018-12-17T16:16:38.285Z,2.66
2018-12-17T16:19:06.473Z,2.68
2018-12-17T16:21:34.660Z,2.64
2018-12-17T16:24:02.909Z,2.68
2018-12-17T16:26:31.103Z,2.69
2018-12-17T16:28:59.267Z,2.80
2018-12-17T16:31:27.484Z,2.74
2018-12-17T16:33:55.716Z,2.80
2018-12-17T16:36:23.926Z,2.86
2018-12-17T16:38:52.140Z,2.84
2018-12-17T16:41:20.376Z,2.85
2018-12-17T16:43:48.592Z,2.96
2018-12-17T16:46:16.772Z,3.00
2018-12-17T16:48:45.003Z,2.97
2018-12-17T16:51:13.213Z,2.96
2018-12-17T16:53:41.456Z,2.96
2018-12-17T16:56:09.649Z,2.86
2018-12-17T16:58:37.829Z,2.90
2018-12-17T17:01:06.180Z,2.90
2018-12-17T17:03:34.396Z,2.92
2018-12-17T17:06:02.633Z,2.96
2018-12-17T17:08:30.817Z,2.83
2018-12-17T17:10:59.004Z,2.84
2018-12-17T17:13:27.223Z,2.88
2018-12-17T17:15:55.425Z,2.87
2018-12-17T17:18:23.612Z,2.85
2018-12-17T17:20:51.829Z,2.95
2018-12-17T17:23:20.144Z,2.86
2018-12-17T17:25:48.380Z,2.91
2018-12-17T17:28:16.567Z,2.98
2018-12-17T17:30:44.795Z,2.86
2018-12-17T17:33:13.037Z,2.84
2018-12-17T17:35:41.248Z,2.90
2018-12-17T17:38:09.441Z,2.92
2018-12-17T17:40:37.704Z,2.92
2018-12-17T17:43:05.976Z,2.96
2018-12-17T17:45:34.161Z,2.94
2018-12-17T17:48:02.545Z,2.97
2018-12-17T17:50:30.744Z,2.92
2018-12-17T17:52:58.964Z,2.87
2018-12-17T17:55:27.238Z,2.85
2018-12-17T17:57:55.448Z,2.83
2018-12-17T18:00:23.669Z,2.87
2018-12-17T18:02:51.848Z,2.93
2018-12-17T18:05:20.164Z,2.95
2018-12-17T18:07:48.493Z,2.89
2018-12-17T18:10:16.673Z,2.90
2018-12-17T18:12:44.885Z,2.94
2018-12-17T18:15:13.225Z,2.93
2018-12-17T18:17:41.403Z,2.87
2018-12-17T18:20:09.854Z,2.92
2018-12-17T18:22:38.047Z,2.99
2018-12-17T18:25:06.512Z,3.01
2018-12-17T18:27:34.733Z,2.97
2018-12-17T18:30:03.153Z,2.91
2018-12-17T18:32:31.363Z,2.84
2018-12-17T18:34:59.660Z,2.78
2018-12-17T18:37:27.880Z,2.83
2018-12-17T18:39:56.116Z,2.80
2018-12-17T18:42:24.343Z,2.85
2018-12-17T18:44:52.656Z,2.84
2018-12-17T18:47:25.619Z,2.83
2018-12-17T18:49:51.172Z,2.88
2018-12-17T18:52:19.413Z,2.90
2018-12-17T18:54:47.627Z,2.86
2018-12-17T18:57:15.799Z,2.92
2018-12-17T18:59:44.041Z,2.93
2018-12-17T19:02:12.440Z,2.97
2018-12-17T19:04:40.684Z,2.95
2018-12-17T19:07:08.876Z,2.97
2018-12-17T19:09:37.133Z,3.01
2018-12-17T19:12:05.321Z,3.04
2018-12-17T19:14:33.663Z,3.02
2018-12-17T19:17:01.909Z,3.02
2018-12-17T19:19:30.084Z,3.05
2018-12-17T19:21:58.327Z,3.09
2018-12-17T19:24:26.564Z,3.07
2018-12-17T19:26:54.849Z,3.09
2018-12-17T19:29:23.092Z,3.13
2018-12-17T19:31:51.286Z,3.13
2018-12-17T19:34:19.559Z,3.18
2018-12-17T19:36:47.873Z,3.16
2018-12-17T19:39:16.064Z,3.19
2018-12-17T19:41:44.297Z,3.22
2018-12-17T19:44:12.473Z,3.25
2018-12-17T19:46:41.714Z,3.28
2018-12-17T19:49:09.955Z,3.33
2018-12-17T19:51:38.141Z,3.33
2018-12-17T19:54:06.328Z,3.36
2018-12-17T19:56:34.567Z,3.38
2018-12-17T19:59:02.749Z,3.40
2018-12-17T20:01:30.937Z,3.41
2018-12-17T20:03:59.178Z,3.40
2018-12-17T20:06:27.377Z,3.43
2018-12-17T20:08:55.597Z,3.42
2018-12-17T20:11:23.792Z,3.43
2018-12-17T20:13:52.171Z,3.39
2018-12-17T20:16:20.360Z,3.43
2018-12-17T20:18:48.667Z,3.39
2018-12-17T20:21:16.881Z,3.38
2018-12-17T20:23:45.080Z,3.40
2018-12-17T20:26:13.304Z,3.37
2018-12-17T20:28:41.480Z,3.38
2018-12-17T20:31:09.736Z,3.34
2018-12-17T20:33:37.960Z,3.32
2018-12-17T20:36:06.165Z,3.31
2018-12-17T20:38:34.371Z,3.34
2018-12-17T20:41:02.604Z,3.36
2018-12-17T20:43:30.853Z,3.38
2018-12-17T20:46:00.030Z,3.35
2018-12-17T20:48:28.216Z,3.33
2018-12-17T20:50:56.442Z,3.41
2018-12-17T20:53:24.636Z,3.42
2018-12-17T20:55:52.848Z,3.41
2018-12-17T20:58:21.043Z,3.36
2018-12-17T21:00:49.256Z,3.42
2018-12-17T21:03:17.452Z,3.42
2018-12-17T21:05:45.728Z,3.40
2018-12-17T21:08:13.960Z,3.40
2018-12-17T21:10:42.161Z,3.44
2018-12-17T21:13:10.384Z,3.45
2018-12-17T21:15:38.577Z,3.37
2018-12-17T21:18:06.768Z,3.37
2018-12-17T21:20:34.998Z,3.23
2018-12-17T21:23:03.204Z,3.24
2018-12-17T21:25:31.431Z,3.27
2018-12-17T21:27:59.600Z,3.27
2018-12-17T21:30:27.832Z,3.22
2018-12-17T21:32:56.060Z,3.23
2018-12-17T21:35:24.280Z,3.27
2018-12-17T21:37:52.508Z,3.35
2018-12-17T21:40:20.684Z,3.38
2018-12-17T21:42:48.915Z,3.32
2018-12-17T21:45:17.094Z,3.35
2018-12-17T21:47:45.336Z,3.36
2018-12-17T21:50:13.613Z,3.37
2018-12-17T21:52:41.792Z,3.42
2018-12-17T21:55:10.027Z,3.44
2018-12-17T21:57:38.207Z,3.42
2018-12-17T22:00:07.052Z,3.45
2018-12-17T22:02:35.365Z,3.46
2018-12-17T22:05:04.020Z,3.47
2018-12-17T22:07:32.251Z,3.48
2018-12-17T22:10:01.083Z,3.44
2018-12-17T22:12:29.424Z,3.42
2018-12-17T22:14:57.655Z,3.43
2018-12-17T22:17:25.897Z,3.41
2018-12-17T22:19:54.087Z,3.47
2018-12-17T22:22:22.320Z,3.47
2018-12-17T22:24:50.612Z,3.50
2018-12-17T22:27:18.788Z,3.49
2018-12-17T22:29:47.088Z,3.49
2018-12-17T22:32:15.304Z,3.59
2018-12-17T22:34:43.504Z,3.59
2018-12-17T22:37:11.706Z,3.60
2018-12-17T22:39:40.016Z,3.63
2018-12-17T22:42:08.238Z,3.68
2018-12-17T22:44:36.553Z,3.72
2018-12-17T22:47:04.868Z,3.70
2018-12-17T22:49:33.204Z,3.73
2018-12-17T22:52:01.449Z,3.71
2018-12-17T22:54:29.713Z,3.75
2018-12-17T22:56:57.924Z,3.72
2018-12-17T22:59:26.111Z,3.74
2018-12-17T23:01:54.448Z,3.80
2018-12-17T23:04:22.669Z,3.78
2018-12-17T23:06:50.914Z,3.82
2018-12-17T23:09:18.092Z,3.84
2018-12-17T23:12:02.770Z,3.85
2018-12-17T23:14:42.012Z,3.85
2018-12-17T23:17:21.329Z,3.85
2018-12-17T23:19:49.817Z,3.81
2018-12-17T23:22:20.108Z,3.80
2018-12-17T23:24:48.440Z,3.82
2018-12-17T23:27:16.648Z,3.87
2018-12-17T23:29:44.896Z,3.89
2018-12-17T23:32:13.176Z,3.89
2018-12-17T23:34:41.353Z,3.92
2018-12-17T23:37:09.664Z,3.88
2018-12-17T23:39:37.839Z,3.86
2018-12-17T23:42:06.196Z,3.88
2018-12-17T23:44:36.572Z,3.92
2018-12-17T23:47:05.004Z,3.88
2018-12-17T23:49:33.224Z,3.92
2018-12-17T23:52:01.412Z,3.88
2018-12-17T23:54:29.580Z,3.87
2018-12-17T23:56:57.818Z,3.91
2018-12-17T23:59:25.988Z,3.97
